This is the latest recevied weather packets stored in our database for station/object SQ8SW-4. If no packets are shown the sender has not sent any weather packets the latest 10 day(s).
| Time | Temp. | Humidity | Pressure | Rain* | Wind** | Luminosity | Snow |
|---|---|---|---|---|---|---|---|
| 1777871929 | 13.33° C | 55% | 989 hPa | - | - | - | - |
| 1777871026 | 12.22° C | 57% | 989 hPa | - | - | - | - |
| 1777870124 | 11.11° C | 59% | 989 hPa | - | - | - | - |
| 1777869222 | 10° C | 62% | 989 hPa | - | - | - | - |
| 1777868320 | 8.89° C | 64% | 989 hPa | - | - | - | - |
| 1777867417 | 7.78° C | 70% | 989 hPa | - | - | - | - |
| 1777866515 | 7.78° C | 75% | 989 hPa | - | - | - | - |
| 1777865613 | 7.78° C | 75% | 989 hPa | - | - | - | - |
| 1777864711 | 7.22° C | 75% | 989 hPa | - | - | - | - |
| 1777863808 | 7.22° C | 77% | 989 hPa | - | - | - | - |
| 1777862906 | 7.78° C | 77% | 989 hPa | - | - | - | - |
| 1777862004 | 7.78° C | 77% | 989 hPa | - | - | - | - |
| 1777861102 | 7.78° C | 75% | 989 hPa | - | - | - | - |
| 1777860200 | 8.33° C | 75% | 989 hPa | - | - | - | - |
| 1777859297 | 8.89° C | 75% | 989 hPa | - | - | - | - |
| 1777858395 | 8.89° C | 72% | 989 hPa | - | - | - | - |
| 1777857493 | 9.44° C | 70% | 989 hPa | - | - | - | - |
| 1777856591 | 9.44° C | 68% | 989 hPa | - | - | - | - |
| 1777855688 | 10° C | 68% | 989 hPa | - | - | - | - |
| 1777854786 | 10° C | 68% | 989 hPa | - | - | - | - |
| 1777853884 | 10.56° C | 67% | 989 hPa | - | - | - | - |
| 1777852982 | 10.56° C | 66% | 989 hPa | - | - | - | - |
| 1777852080 | 11.11° C | 65% | 989 hPa | - | - | - | - |
| 1777851177 | 11.11° C | 64% | 989 hPa | - | - | - | - |
| 1777850275 | 11.67° C | 63% | 989 hPa | - | - | - | - |
* Rain since midnight (hover to see other rain measurements)
** Current wind speed in m/s (hover to see current wind gust speed)